Time;durP1;ratioP1;P1;durP2;ratioP2;P2;SDS_P1;SDS_P2;PMS_P1;PMS_P2;Temp;Humidity;BMP_temperature;BMP_pressure;BME280_temperature;BME280_humidity;BME280_pressure;Samples;Min_cycle;Max_cycle;Signal;HPM_P1;HPM_P2
2021/10/14 00:01:53;;;;;;;8.77;5.50;;;;;;;3.10;100.00;99847.91;5030684;28;20033;-70
2021/10/14 00:04:19;;;;;;;8.68;5.68;;;;;;;2.98;100.00;99844.41;5031165;28;20039;-70
2021/10/14 00:06:45;;;;;;;8.68;4.72;;;;;;;3.08;100.00;99856.03;5031123;28;20033;-68
2021/10/14 00:09:11;;;;;;;11.23;5.03;;;;;;;3.08;100.00;99856.88;5030714;28;20029;-68
2021/10/14 00:11:37;;;;;;;15.25;5.93;;;;;;;3.08;100.00;99861.38;5030730;28;20025;-68
2021/10/14 00:14:03;;;;;;;12.07;5.22;;;;;;;3.02;100.00;99869.94;5031045;28;20083;-68
2021/10/14 00:16:28;;;;;;;8.93;5.10;;;;;;;3.07;100.00;99873.06;5027029;28;20033;-68
2021/10/14 00:18:54;;;;;;;10.60;5.60;;;;;;;3.07;100.00;99852.50;5031205;28;20514;-68
2021/10/14 00:21:19;;;;;;;10.55;6.10;;;;;;;3.22;100.00;99862.88;5030434;28;20033;-69
2021/10/14 00:23:44;;;;;;;16.85;6.82;;;;;;;3.40;100.00;99877.34;5022335;28;20036;-68
2021/10/14 00:26:11;;;;;;;10.85;5.55;;;;;;;3.22;100.00;99862.88;5031224;28;20032;-69
2021/10/14 00:28:36;;;;;;;15.90;5.70;;;;;;;3.33;100.00;99872.66;5027700;28;20021;-70
2021/10/14 00:31:01;;;;;;;8.75;5.22;;;;;;;3.15;100.00;99841.19;5024553;28;20470;-70
2021/10/14 00:33:27;;;;;;;11.50;5.85;;;;;;;3.27;100.00;99866.88;5030384;28;20057;-70
2021/10/14 00:35:52;;;;;;;13.30;6.63;;;;;;;3.29;100.00;99835.47;5034486;28;20025;-70
2021/10/14 00:38:17;;;;;;;19.20;8.20;;;;;;;3.29;100.00;99840.00;5034846;28;20472;-69
2021/10/14 00:40:44;;;;;;;20.02;7.90;;;;;;;3.16;100.00;99826.81;5035237;28;20100;-68
2021/10/14 00:43:10;;;;;;;19.02;8.07;;;;;;;3.35;100.00;99868.03;5034716;28;20029;-69
2021/10/14 00:45:35;;;;;;;21.02;8.35;;;;;;;3.26;100.00;99859.81;5033892;28;20083;-68
2021/10/14 00:48:00;;;;;;;22.40;8.68;;;;;;;3.25;100.00;99868.84;5034529;28;20487;-68
2021/10/14 00:50:26;;;;;;;14.20;7.43;;;;;;;3.17;100.00;99860.63;5034610;28;20543;-68
2021/10/14 00:52:52;;;;;;;17.27;7.72;;;;;;;3.10;100.00;99847.91;5033291;28;20029;-68
2021/10/14 00:55:17;;;;;;;15.43;7.50;;;;;;;3.06;100.00;99850.81;5033891;28;20091;-68
2021/10/14 00:57:43;;;;;;;20.35;8.02;;;;;;;2.98;100.00;99858.63;5032500;28;20479;-68
2021/10/14 01:00:09;;;;;;;15.88;7.50;;;;;;;2.94;100.00;99859.88;5034373;28;20032;-68
2021/10/14 01:02:35;;;;;;;19.38;7.65;;;;;;;2.69;100.00;99839.69;5032061;28;20057;-70
2021/10/14 01:05:00;;;;;;;31.85;7.47;;;;;;;2.78;100.00;99857.63;5033606;28;20491;-70
2021/10/14 01:07:27;;;;;;;15.57;6.60;;;;;;;2.95;100.00;99860.72;5034026;28;20144;-68
2021/10/14 01:09:52;;;;;;;13.48;6.93;;;;;;;3.05;100.00;99858.97;5034095;28;20072;-70
2021/10/14 01:12:18;;;;;;;17.25;7.18;;;;;;;3.02;100.00;99861.91;5032494;28;20048;-68
2021/10/14 01:14:44;;;;;;;23.55;7.13;;;;;;;3.00;100.00;99864.69;5032476;28;20025;-68
2021/10/14 01:17:09;;;;;;;32.92;8.75;;;;;;;3.00;100.00;99845.16;5033881;28;20031;-68
2021/10/14 01:19:39;;;;;;;35.53;9.43;;;;;;;3.19;100.00;99857.78;5033675;28;20108;-70
2021/10/14 01:22:04;;;;;;;17.85;7.28;;;;;;;3.06;100.00;99836.59;5033859;28;20036;-68
2021/10/14 01:24:30;;;;;;;13.82;7.40;;;;;;;3.17;100.00;99854.41;5033942;28;20029;-68
2021/10/14 01:26:55;;;;;;;28.10;7.68;;;;;;;3.28;100.00;99851.69;5034064;28;20498;-69
2021/10/14 01:29:20;;;;;;;13.48;6.70;;;;;;;3.24;100.00;99843.06;5032772;28;20116;-68
2021/10/14 01:31:46;;;;;;;9.15;5.68;;;;;;;3.19;100.00;99831.91;5035081;28;20386;-69
2021/10/14 01:34:14;;;;;;;11.27;6.18;;;;;;;3.14;100.00;99828.75;5034272;28;20032;-69
2021/10/14 01:36:40;;;;;;;20.00;8.07;;;;;;;2.90;100.00;99793.44;5027039;28;20061;-68
2021/10/14 01:39:05;;;;;;;36.20;13.77;;;;;;;3.16;100.00;99840.19;5033568;28;20056;-68
2021/10/14 01:41:30;;;;;;;23.20;10.07;;;;;;;2.95;100.00;99796.56;5030916;28;20483;-68
2021/10/14 01:43:56;;;;;;;27.15;9.90;;;;;;;3.10;100.00;99832.69;5032890;28;20685;-68
2021/10/14 01:46:21;;;;;;;46.92;14.77;;;;;;;3.07;100.00;99831.13;5033081;28;20083;-69
2021/10/14 01:48:46;;;;;;;15.32;7.53;;;;;;;3.06;100.00;99832.09;5032533;28;20590;-68
2021/10/14 01:51:12;;;;;;;10.20;6.13;;;;;;;3.01;100.00;99817.41;5033663;28;20025;-68
2021/10/14 01:53:38;;;;;;;15.75;6.25;;;;;;;3.03;100.00;99820.81;5034001;28;20030;-68
2021/10/14 01:56:04;;;;;;;11.40;4.85;;;;;;;2.98;100.00;99813.19;5031661;28;20522;-68
2021/10/14 01:58:30;;;;;;;27.48;5.32;;;;;;;2.93;100.00;99820.75;5033795;28;20040;-68
2021/10/14 02:00:55;;;;;;;12.00;5.53;;;;;;;2.86;100.00;99803.56;5034584;28;20021;-69
2021/10/14 02:03:21;;;;;;;9.23;5.20;;;;;;;2.87;100.00;99815.09;5047886;22;20036;-68
2021/10/14 02:05:46;;;;;;;14.65;5.72;;;;;;;2.83;100.00;99812.66;5031718;28;20034;-67
2021/10/14 02:08:12;;;;;;;14.80;5.50;;;;;;;2.78;100.00;99814.03;5033469;28;20053;-68
2021/10/14 02:10:37;;;;;;;9.25;5.70;;;;;;;2.73;100.00;99822.44;5033114;28;20100;-68
2021/10/14 02:13:04;;;;;;;11.55;5.60;;;;;;;2.56;100.00;99801.59;5033079;28;20034;-68
2021/10/14 02:15:29;;;;;;;17.13;6.78;;;;;;;2.52;100.00;99821.56;5053325;28;20112;-68
2021/10/14 02:17:55;;;;;;;12.05;6.28;;;;;;;2.27;100.00;99807.53;5056904;28;20053;-69
2021/10/14 02:20:21;;;;;;;11.32;5.45;;;;;;;2.30;100.00;99820.63;5057022;28;20029;-68
2021/10/14 02:22:46;;;;;;;13.38;6.60;;;;;;;2.20;100.00;99830.34;5057886;28;20017;-69
2021/10/14 02:25:13;;;;;;;9.85;5.35;;;;;;;2.24;100.00;99828.31;5056751;28;20041;-69
2021/10/14 02:27:38;;;;;;;15.93;5.75;;;;;;;2.18;100.00;99814.47;5057357;28;20022;-69
2021/10/14 02:30:05;;;;;;;9.25;5.68;;;;;;;2.16;100.00;99823.59;5044723;28;20032;-69
2021/10/14 02:32:31;;;;;;;11.68;6.60;;;;;;;2.19;100.00;99826.84;5033865;28;20403;-68
2021/10/14 02:34:57;;;;;;;9.30;5.32;;;;;;;2.24;100.00;99815.78;5032811;28;20021;-68
2021/10/14 02:37:23;;;;;;;10.05;5.93;;;;;;;2.28;100.00;99819.94;5032572;28;20527;-68
2021/10/14 02:39:49;;;;;;;10.15;5.28;;;;;;;2.33;100.00;99814.19;5031106;28;20076;-68
2021/10/14 02:42:14;;;;;;;10.15;6.18;;;;;;;2.33;100.00;99817.72;5030665;28;20025;-68
2021/10/14 02:44:39;;;;;;;14.10;7.25;;;;;;;2.48;100.00;99822.75;5030467;28;20026;-68
2021/10/14 02:47:05;;;;;;;23.58;8.68;;;;;;;2.49;100.00;99816.44;5032364;28;20034;-68
2021/10/14 02:49:30;;;;;;;26.83;10.65;;;;;;;2.57;100.00;99817.53;5031480;28;20025;-68
2021/10/14 02:51:55;;;;;;;27.52;11.02;;;;;;;2.55;100.00;99805.25;5033002;28;20470;-68
2021/10/14 02:54:21;;;;;;;67.13;19.50;;;;;;;2.69;100.00;99823.66;5031482;28;20089;-68
2021/10/14 02:56:46;;;;;;;33.15;14.85;;;;;;;2.74;100.00;99829.47;5030832;28;20025;-68
2021/10/14 02:59:11;;;;;;;30.30;11.80;;;;;;;2.82;100.00;99820.81;5031846;28;20029;-68
2021/10/14 03:01:37;;;;;;;23.85;9.90;;;;;;;3.03;100.00;99821.66;5032081;28;20082;-68
2021/10/14 03:04:03;;;;;;;25.83;9.80;;;;;;;3.09;100.00;99822.97;5031457;28;20033;-68
2021/10/14 03:06:28;;;;;;;24.00;9.55;;;;;;;3.12;100.00;99829.88;5032776;28;20036;-68
2021/10/14 03:08:54;;;;;;;17.40;8.35;;;;;;;3.13;100.00;99829.75;5032486;28;20052;-68
2021/10/14 03:11:19;;;;;;;15.82;7.80;;;;;;;3.16;100.00;99823.31;5031243;28;20060;-68
2021/10/14 03:13:45;;;;;;;18.98;7.60;;;;;;;3.19;100.00;99825.72;5030962;28;20053;-68
2021/10/14 03:16:10;;;;;;;13.77;6.75;;;;;;;3.16;100.00;99815.28;5031017;28;20079;-68
2021/10/14 03:18:36;;;;;;;15.43;6.72;;;;;;;3.16;100.00;99824.13;5031131;28;20033;-71
2021/10/14 03:21:01;;;;;;;14.27;6.75;;;;;;;3.18;100.00;99814.16;5030453;28;20028;-71
2021/10/14 03:23:26;;;;;;;13.57;6.35;;;;;;;3.15;100.00;99813.59;5022604;28;20032;-72
2021/10/14 03:25:52;;;;;;;12.20;5.90;;;;;;;3.07;100.00;99814.25;5031862;28;20057;-70
2021/10/14 03:28:17;;;;;;;16.38;6.70;;;;;;;2.96;100.00;99807.13;5032250;28;20037;-71
2021/10/14 03:30:42;;;;;;;12.98;6.95;;;;;;;2.80;100.00;99794.22;5031216;28;20037;-72
2021/10/14 03:33:08;;;;;;;12.27;6.93;;;;;;;2.85;100.00;99805.34;5026990;28;20037;-73
2021/10/14 03:35:34;;;;;;;15.93;6.68;;;;;;;2.82;100.00;99805.59;5030290;28;20099;-74
2021/10/14 03:38:00;;;;;;;11.48;6.43;;;;;;;2.83;100.00;99826.03;5030197;28;20033;-74
2021/10/14 03:40:27;;;;;;;11.73;7.10;;;;;;;2.83;100.00;99815.34;5031388;28;20021;-73
2021/10/14 03:42:53;;;;;;;11.27;7.00;;;;;;;2.65;100.00;99806.19;5031041;28;20029;-75
2021/10/14 03:45:18;;;;;;;11.75;7.13;;;;;;;2.76;100.00;99824.00;5030453;28;20036;-74
2021/10/14 03:47:43;;;;;;;14.82;7.53;;;;;;;2.76;100.00;99814.16;5032072;28;20090;-73
2021/10/14 03:50:09;;;;;;;11.80;7.65;;;;;;;2.81;100.00;99829.81;5028598;28;20467;-72
2021/10/14 03:52:35;;;;;;;12.70;6.78;;;;;;;2.73;100.00;99809.06;5030811;28;20032;-72
2021/10/14 03:55:00;;;;;;;11.45;6.88;;;;;;;2.96;100.00;99822.31;5020923;28;20221;-72
2021/10/14 03:57:26;;;;;;;13.70;6.70;;;;;;;2.97;100.00;99835.56;5030330;28;20037;-75
2021/10/14 03:59:51;;;;;;;12.40;6.80;;;;;;;3.02;100.00;99841.38;5022766;28;20064;-75
2021/10/14 04:02:16;;;;;;;12.38;6.97;;;;;;;2.99;100.00;99838.13;5020435;28;20053;-74
2021/10/14 04:04:42;;;;;;;10.90;6.68;;;;;;;2.99;100.00;99838.13;5025016;28;20631;-74
2021/10/14 04:07:07;;;;;;;12.45;7.43;;;;;;;2.96;100.00;99827.66;5025931;28;20025;-73
2021/10/14 04:09:32;;;;;;;12.25;7.22;;;;;;;3.13;100.00;99843.13;5031190;28;20966;-75
2021/10/14 04:11:58;;;;;;;15.18;7.55;;;;;;;3.06;100.00;99836.59;5030443;28;20108;-73
2021/10/14 04:14:23;;;;;;;19.00;9.13;;;;;;;3.05;100.00;99822.38;5026982;28;20105;-74
2021/10/14 04:16:48;;;;;;;19.15;8.80;;;;;;;3.10;100.00;99834.53;5033063;28;20037;-74
2021/10/14 04:19:14;;;;;;;21.63;9.27;;;;;;;3.15;100.00;99835.81;5034197;28;20408;-75
2021/10/14 04:21:39;;;;;;;21.55;8.50;;;;;;;3.09;100.00;99836.31;5034271;28;20466;-75
2021/10/14 04:24:05;;;;;;;19.70;8.18;;;;;;;3.03;100.00;99835.03;5036830;28;20029;-74
2021/10/14 04:26:30;;;;;;;17.40;8.20;;;;;;;3.05;100.00;99837.59;5031094;28;20017;-74
2021/10/14 04:28:56;;;;;;;15.20;8.23;;;;;;;2.95;100.00;99821.47;5016588;28;20542;-74
2021/10/14 04:31:21;;;;;;;14.30;7.57;;;;;;;3.05;100.00;99818.88;5033113;28;20473;-75
2021/10/14 04:33:47;;;;;;;16.98;7.80;;;;;;;3.22;100.00;99847.72;5035123;28;20029;-74
2021/10/14 04:36:12;;;;;;;16.15;7.93;;;;;;;3.22;100.00;99836.13;5033394;28;20037;-73
2021/10/14 04:38:37;;;;;;;11.30;7.45;;;;;;;3.29;100.00;99843.50;5030386;28;20026;-74
2021/10/14 04:41:03;;;;;;;15.82;8.18;;;;;;;3.39;100.00;99851.59;5034938;28;20502;-72
2021/10/14 04:43:28;;;;;;;19.70;9.75;;;;;;;3.56;100.00;99860.84;5033390;28;20025;-71
2021/10/14 04:45:54;;;;;;;19.10;10.27;;;;;;;3.50;100.00;99846.16;5032923;28;20036;-72
2021/10/14 04:48:20;;;;;;;15.68;8.63;;;;;;;3.57;100.00;99848.31;5035035;28;20098;-75
2021/10/14 04:50:45;;;;;;;19.02;10.45;;;;;;;3.60;100.00;99843.53;5031864;28;20021;-71
2021/10/14 04:53:11;;;;;;;18.42;8.60;;;;;;;3.55;100.00;99832.41;5027764;28;20037;-72
2021/10/14 04:55:36;;;;;;;17.35;8.57;;;;;;;3.69;100.00;99848.13;5034746;28;20027;-76
2021/10/14 04:58:02;;;;;;;11.25;7.55;;;;;;;3.71;100.00;99843.44;5035016;28;20029;-74
2021/10/14 05:00:27;;;;;;;14.20;7.65;;;;;;;3.78;100.00;99853.63;5033657;28;20032;-74
2021/10/14 05:02:52;;;;;;;14.05;7.22;;;;;;;3.83;100.00;99849.56;5034641;28;20041;-73
2021/10/14 05:05:18;;;;;;;10.60;6.97;;;;;;;3.70;100.00;99825.72;5028046;28;20432;-76
2021/10/14 05:07:44;;;;;;;12.05;6.47;;;;;;;3.77;100.00;99823.31;5034290;28;20403;-76
2021/10/14 05:10:09;;;;;;;9.15;6.07;;;;;;;3.79;100.00;99836.59;5021536;28;20026;-75
2021/10/14 05:12:35;;;;;;;9.95;6.47;;;;;;;3.93;100.00;99841.59;5031006;28;20022;-75
2021/10/14 05:15:05;;;;;;;9.75;6.18;;;;;;;3.93;100.00;99836.25;5028290;28;20087;-73
2021/10/14 05:17:30;;;;;;;8.43;5.45;;;;;;;3.92;100.00;99835.38;5027366;28;20697;-74
2021/10/14 05:19:56;;;;;;;11.98;6.10;;;;;;;3.82;100.00;99839.84;5049090;28;20128;-73
2021/10/14 05:22:21;;;;;;;8.98;5.70;;;;;;;3.94;100.00;99843.28;5034103;28;20026;-74
2021/10/14 05:24:46;;;;;;;11.02;5.75;;;;;;;3.92;100.00;99847.91;5034480;28;20061;-75
2021/10/14 05:27:12;;;;;;;10.15;5.80;;;;;;;3.89;100.00;99843.66;5034324;28;20067;-74
2021/10/14 05:29:37;;;;;;;11.93;5.70;;;;;;;3.87;100.00;99850.97;5033967;28;20496;-73
2021/10/14 05:32:13;;;;;;;8.70;5.57;;;;;;;3.87;100.00;99836.75;5020015;28;20025;-79
2021/10/14 05:34:38;;;;;;;9.30;5.85;;;;;;;3.86;100.00;99835.06;5027672;28;20021;-73
2021/10/14 05:37:03;;;;;;;8.93;6.00;;;;;;;3.74;100.00;99831.63;5024964;28;20597;-73
2021/10/14 05:39:29;;;;;;;11.10;5.65;;;;;;;3.72;100.00;99815.72;5028719;28;20487;-74
2021/10/14 05:41:54;;;;;;;8.45;5.47;;;;;;;3.70;100.00;99825.72;5024425;28;20395;-72
2021/10/14 05:44:20;;;;;;;11.68;6.72;;;;;;;3.64;100.00;99812.88;5019011;28;20022;-74
2021/10/14 05:46:45;;;;;;;9.25;5.80;;;;;;;3.65;100.00;99830.63;5030915;28;20064;-78
2021/10/14 05:49:10;;;;;;;10.68;6.68;;;;;;;3.60;100.00;99826.66;5034615;28;20033;-76
2021/10/14 05:51:36;;;;;;;12.30;6.57;;;;;;;3.60;100.00;99830.16;5031253;28;20025;-76
2021/10/14 05:54:01;;;;;;;11.07;7.05;;;;;;;3.63;100.00;99829.06;5024109;28;20040;-77
2021/10/14 05:56:27;;;;;;;11.65;5.97;;;;;;;3.62;100.00;99811.31;5021125;28;20022;-76
2021/10/14 05:58:53;;;;;;;12.05;6.22;;;;;;;3.95;100.00;99844.97;5029194;28;21901;-74
2021/10/14 06:01:20;;;;;;;8.35;5.70;;;;;;;3.94;100.00;99833.41;5022480;28;20038;-76
2021/10/14 06:03:45;;;;;;;10.20;5.90;;;;;;;3.94;100.00;99825.38;5014547;28;20038;-78
2021/10/14 06:06:11;;;;;;;10.27;6.05;;;;;;;4.15;100.00;99841.38;5013321;28;20125;-73
2021/10/14 06:08:36;;;;;;;7.72;5.43;;;;;;;4.17;100.00;99843.91;5018226;28;20080;-76
2021/10/14 06:11:02;;;;;;;9.55;6.22;;;;;;;4.14;100.00;99842.38;5033883;28;20076;-73
2021/10/14 06:13:27;;;;;;;10.55;6.13;;;;;;;4.27;100.00;99854.63;5033614;28;20068;-74
2021/10/14 06:15:53;;;;;;;10.90;5.53;;;;;;;4.30;100.00;99843.69;5030287;28;20051;-74
2021/10/14 06:18:18;;;;;;;12.02;6.78;;;;;;;4.29;100.00;99836.59;5028152;28;20029;-77
2021/10/14 06:20:44;;;;;;;8.35;5.80;;;;;;;4.51;100.00;99844.41;5033332;28;20030;-74
2021/10/14 06:23:09;;;;;;;10.25;6.35;;;;;;;4.61;100.00;99847.94;5033774;28;20025;-74
2021/10/14 06:25:34;;;;;;;11.00;6.25;;;;;;;4.63;100.00;99831.72;5030122;28;20368;-77
2021/10/14 06:28:00;;;;;;;9.77;6.50;;;;;;;4.85;100.00;99830.63;5033289;28;20033;-77
2021/10/14 06:30:26;;;;;;;12.93;7.32;;;;;;;4.94;100.00;99815.50;5031813;28;20030;-77
2021/10/14 06:32:51;;;;;;;13.98;6.78;;;;;;;5.05;100.00;99823.38;5021805;28;20044;-76
2021/10/14 06:35:17;;;;;;;13.43;7.80;;;;;;;5.22;100.00;99835.25;5032145;28;20045;-75
2021/10/14 06:37:42;;;;;;;12.63;7.22;;;;;;;5.30;100.00;99816.56;5033397;28;20076;-75
2021/10/14 06:40:08;;;;;;;9.80;6.68;;;;;;;5.54;100.00;99820.63;5031433;28;20030;-75
2021/10/14 06:42:33;;;;;;;6.95;5.05;;;;;;;5.59;100.00;99810.28;5033733;28;20029;-77
2021/10/14 06:44:59;;;;;;;7.97;5.22;;;;;;;6.00;100.00;99827.81;5019442;28;20029;-78
2021/10/14 06:47:24;;;;;;;7.95;5.22;;;;;;;6.04;98.89;99828.34;5016917;28;20021;-70
2021/10/14 06:49:49;;;;;;;8.25;4.65;;;;;;;6.06;98.54;99840.66;5028779;28;20172;-70
2021/10/14 06:52:16;;;;;;;6.32;4.20;;;;;;;5.84;97.75;99833.78;5031192;28;20041;-70
2021/10/14 06:54:43;;;;;;;7.00;4.32;;;;;;;5.98;97.78;99847.75;5032732;28;20022;-70
2021/10/14 06:57:08;;;;;;;9.88;4.85;;;;;;;6.08;97.30;99835.13;5031755;28;20399;-70
2021/10/14 06:59:33;;;;;;;8.68;4.97;;;;;;;6.40;98.48;99852.63;5031480;28;20021;-70
2021/10/14 07:01:59;;;;;;;9.43;4.45;;;;;;;6.55;98.54;99849.28;5031675;28;20037;-75
2021/10/14 07:04:24;;;;;;;9.27;4.82;;;;;;;6.94;97.13;99848.13;5022244;28;20040;-77
2021/10/14 07:06:50;;;;;;;7.68;4.18;;;;;;;7.03;93.41;99844.53;5021530;28;20063;-72
2021/10/14 07:09:15;;;;;;;8.13;4.35;;;;;;;7.30;90.21;99842.72;5032879;28;20043;-76
2021/10/14 07:11:50;;;;;;;9.82;4.20;;;;;;;7.29;88.92;99843.72;5030879;28;20021;-79
2021/10/14 07:14:15;;;;;;;6.38;4.05;;;;;;;7.50;87.70;99854.16;5032327;28;20486;-72
2021/10/14 07:16:40;;;;;;;6.20;3.65;;;;;;;8.07;86.73;99860.72;5032021;28;20120;-73
2021/10/14 07:19:06;;;;;;;5.53;3.70;;;;;;;8.60;80.46;99844.41;5031192;28;20032;-72
2021/10/14 07:21:31;;;;;;;4.80;3.35;;;;;;;8.84;80.64;99849.84;5030959;28;20479;-72
2021/10/14 07:23:57;;;;;;;6.25;3.65;;;;;;;9.50;81.69;99847.16;5031083;28;20033;-73
2021/10/14 07:26:22;;;;;;;6.65;3.72;;;;;;;9.41;78.15;99846.31;5024902;28;20021;-72
2021/10/14 07:28:47;;;;;;;7.80;3.65;;;;;;;9.57;77.05;99831.94;5025733;28;20092;-72
2021/10/14 07:31:12;;;;;;;6.50;3.60;;;;;;;9.21;78.35;99841.25;5033838;28;20063;-73
2021/10/14 07:33:38;;;;;;;6.80;3.30;;;;;;;9.15;77.47;99846.50;5029010;28;20025;-71
2021/10/14 07:36:05;;;;;;;6.13;3.55;;;;;;;9.51;76.36;99843.41;5026960;28;20021;-73
2021/10/14 07:38:31;;;;;;;5.57;3.00;;;;;;;9.53;75.23;99836.84;5027107;28;20028;-72
2021/10/14 07:40:56;;;;;;;8.52;3.67;;;;;;;9.87;76.01;99833.88;5029350;28;20025;-72
2021/10/14 07:43:21;;;;;;;7.60;3.58;;;;;;;10.77;72.57;99840.78;5034013;28;20021;-73
2021/10/14 07:45:47;;;;;;;6.32;3.33;;;;;;;12.34;67.37;99847.28;5028892;28;20041;-71
2021/10/14 07:48:13;;;;;;;7.25;3.63;;;;;;;12.74;62.72;99833.34;5032204;28;20026;-73
2021/10/14 07:50:38;;;;;;;8.95;3.45;;;;;;;11.97;64.70;99843.66;5024757;28;20467;-73
2021/10/14 07:53:15;;;;;;;7.75;3.42;;;;;;;10.92;67.61;99846.25;5034233;28;20052;-75
2021/10/14 07:55:40;;;;;;;5.20;3.30;;;;;;;10.14;71.17;99872.34;5033021;28;20018;-75
2021/10/14 07:58:06;;;;;;;5.80;3.42;;;;;;;9.37;74.69;99869.28;5025123;28;20648;-76
2021/10/14 08:00:32;;;;;;;11.63;4.18;;;;;;;9.17;75.82;99850.72;5028212;28;20028;-75
2021/10/14 08:02:57;;;;;;;8.77;3.75;;;;;;;8.59;77.74;99853.50;5036907;28;20025;-74
2021/10/14 08:05:24;;;;;;;7.45;3.63;;;;;;;8.63;78.57;99873.75;5040991;28;20082;-74
2021/10/14 08:07:50;;;;;;;6.25;3.88;;;;;;;9.06;77.87;99842.94;5052506;28;20017;-73
2021/10/14 08:10:15;;;;;;;6.78;3.00;;;;;;;11.40;68.96;99864.00;5054996;28;20077;-73
2021/10/14 08:12:42;;;;;;;9.80;3.53;;;;;;;13.82;60.60;99852.09;5046529;28;20514;-72
2021/10/14 08:15:08;;;;;;;7.13;3.40;;;;;;;13.80;59.95;99848.72;5053039;28;20109;-72
2021/10/14 08:17:33;;;;;;;5.07;3.30;;;;;;;13.01;60.40;99843.44;5053558;28;20009;-79
2021/10/14 08:19:59;;;;;;;11.32;3.92;;;;;;;12.63;61.37;99845.53;5044564;28;20549;-77
2021/10/14 08:22:24;;;;;;;6.40;3.50;;;;;;;12.70;63.76;99846.44;5031008;28;20025;-73
2021/10/14 08:24:49;;;;;;;7.20;3.38;;;;;;;12.28;65.42;99845.31;5025467;28;20021;-72
2021/10/14 08:27:15;;;;;;;6.63;3.00;;;;;;;12.19;65.12;99830.16;5034738;28;20029;-76
2021/10/14 08:29:40;;;;;;;4.95;3.10;;;;;;;11.26;67.73;99842.28;5026335;28;20034;-75
2021/10/14 08:32:06;;;;;;;5.72;3.17;;;;;;;11.40;68.30;99845.03;5026724;28;20026;-77
2021/10/14 08:34:32;;;;;;;5.75;3.38;;;;;;;11.15;69.26;99836.25;5023709;28;20025;-78
2021/10/14 08:36:57;;;;;;;6.25;3.00;;;;;;;10.79;70.53;99833.31;5027242;28;20029;-75
2021/10/14 08:39:23;;;;;;;5.90;3.55;;;;;;;10.89;70.83;99854.75;5036730;28;20117;-76
2021/10/14 08:41:49;;;;;;;7.38;3.65;;;;;;;11.17;70.03;99852.34;5029888;28;20029;-76
2021/10/14 08:44:20;;;;;;;7.45;4.00;;;;;;;10.47;73.33;99840.59;5024274;28;20025;-76
2021/10/14 08:46:47;;;;;;;6.70;3.60;;;;;;;10.12;72.72;99841.94;5031534;28;20036;-75
2021/10/14 08:49:14;;;;;;;6.72;3.58;;;;;;;10.23;72.34;99854.22;5028955;28;20060;-72
2021/10/14 08:51:41;;;;;;;7.20;3.72;;;;;;;9.80;74.40;99854.53;5052867;28;20056;-75
2021/10/14 08:54:06;;;;;;;9.20;3.75;;;;;;;9.74;75.48;99860.59;5050183;28;20105;-76
2021/10/14 08:56:33;;;;;;;7.90;3.85;;;;;;;9.44;76.96;99857.63;5042954;28;20021;-77
2021/10/14 08:59:00;;;;;;;6.78;4.38;;;;;;;9.40;77.97;99853.56;5053245;28;20048;-77
2021/10/14 09:01:25;;;;;;;5.13;3.38;;;;;;;9.37;78.32;99858.47;5055033;28;20022;-75
2021/10/14 09:03:52;;;;;;;7.00;3.75;;;;;;;9.86;76.92;99855.69;5054301;28;20035;-76
2021/10/14 09:06:18;;;;;;;13.23;3.65;;;;;;;10.13;74.36;99838.19;5052278;28;20085;-76
2021/10/14 09:08:45;;;;;;;6.63;3.20;;;;;;;10.47;73.87;99847.88;5041052;28;20037;-72
2021/10/14 09:11:16;;;;;;;5.78;3.42;;;;;;;11.12;71.82;99842.03;5036975;28;20021;-76
2021/10/14 09:13:48;;;;;;;6.07;3.25;;;;;;;11.57;70.07;99848.41;5046089;28;20021;-75
2021/10/14 09:16:30;;;;;;;6.72;3.60;;;;;;;11.67;68.35;99847.31;5015532;28;20018;-74
2021/10/14 09:19:11;;;;;;;8.85;3.70;;;;;;;11.26;69.61;99826.84;5025289;28;20040;-75
2021/10/14 09:21:37;;;;;;;10.77;3.50;;;;;;;11.35;69.07;99823.06;5026428;28;20026;-74
2021/10/14 09:24:26;;;;;;;8.20;3.50;;;;;;;11.98;67.14;99826.34;5020769;28;20606;-74
2021/10/14 09:26:54;;;;;;;4.00;3.00;;;;;;;12.86;63.03;99829.94;5032474;28;20042;-74
2021/10/14 09:29:22;;;;;;;5.93;3.47;;;;;;;13.15;62.55;99819.94;5036215;28;20044;-76
2021/10/14 09:32:02;;;;;;;7.90;3.28;;;;;;;14.19;59.94;99816.53;5035036;28;20493;-74
2021/10/14 09:34:43;;;;;;;4.40;3.10;;;;;;;14.86;57.23;99825.81;5016368;28;20157;-75
2021/10/14 09:37:18;;;;;;;4.80;3.00;;;;;;;15.55;54.58;99813.69;5035728;28;20029;-75
2021/10/14 09:40:06;;;;;;;4.88;2.75;;;;;;;17.04;50.98;99804.56;5036022;28;20108;-75
2021/10/14 09:42:52;;;;;;;7.27;3.23;;;;;;;16.76;51.88;99815.84;5034541;28;20036;-75
2021/10/14 09:45:19;;;;;;;4.07;2.63;;;;;;;16.20;52.71;99803.72;5025347;28;20386;-76
2021/10/14 09:48:14;;;;;;;6.53;3.20;;;;;;;15.44;53.45;99817.06;5022738;28;20021;-77
2021/10/14 09:50:45;;;;;;;4.40;2.80;;;;;;;15.03;54.45;99813.47;5023045;28;20045;-74
2021/10/14 09:53:16;;;;;;;7.22;2.72;;;;;;;14.90;54.91;99792.47;5037337;28;20026;-73
2021/10/14 09:55:43;;;;;;;7.05;3.60;;;;;;;15.21;53.58;99774.69;5031675;28;20463;-76
2021/10/14 09:58:08;;;;;;;5.32;3.20;;;;;;;15.74;53.07;99795.66;5025095;28;20029;-76
2021/10/14 10:00:37;;;;;;;6.53;3.25;;;;;;;15.59;53.66;99795.00;5047237;28;20057;-74
2021/10/14 10:03:04;;;;;;;5.47;3.05;;;;;;;15.99;53.17;99796.66;5046655;28;20030;-75
2021/10/14 10:05:30;;;;;;;7.50;3.55;;;;;;;16.21;52.93;99799.09;5044199;28;20005;-70
2021/10/14 10:07:58;;;;;;;6.35;3.47;;;;;;;16.89;50.59;99778.59;5049483;28;20017;-70
2021/10/14 10:10:25;;;;;;;4.80;2.80;;;;;;;16.51;51.40;99788.47;5048839;28;20036;-71
2021/10/14 10:12:52;;;;;;;6.70;3.30;;;;;;;16.14;51.49;99792.84;5048810;28;20048;-70
2021/10/14 10:15:46;;;;;;;5.95;3.15;;;;;;;15.78;52.65;99797.75;5050145;28;20017;-71
2021/10/14 10:18:37;;;;;;;5.05;3.00;;;;;;;16.36;51.46;99802.38;5046418;28;20030;-69
2021/10/14 10:21:06;;;;;;;4.93;2.85;;;;;;;16.97;48.98;99803.75;5042838;28;20498;-71
2021/10/14 10:23:47;;;;;;;11.32;3.45;;;;;;;16.22;49.48;99806.25;5045771;28;21291;-70
2021/10/14 10:26:35;;;;;;;4.90;2.72;;;;;;;16.36;50.29;99805.13;5044512;28;20101;-71
2021/10/14 10:29:28;;;;;;;8.00;2.90;;;;;;;16.03;51.99;99801.66;5045020;28;20032;-71
2021/10/14 10:31:55;;;;;;;4.13;2.50;;;;;;;15.38;53.81;99807.84;5040534;28;20033;-71
2021/10/14 10:34:36;;;;;;;12.25;3.40;;;;;;;14.75;53.47;99804.59;5029579;28;20029;-71
2021/10/14 10:37:22;;;;;;;6.07;2.97;;;;;;;14.53;55.21;99806.63;5031213;28;20034;-71
2021/10/14 10:39:48;;;;;;;7.90;3.10;;;;;;;14.31;56.10;99803.19;5026735;28;20079;-71
2021/10/14 10:42:32;;;;;;;6.22;2.80;;;;;;;14.13;56.66;99801.00;5029833;28;20029;-71
2021/10/14 10:45:19;;;;;;;10.55;3.05;;;;;;;14.21;55.89;99763.56;5028048;28;20034;-71
2021/10/14 10:47:48;;;;;;;6.88;3.75;;;;;;;14.07;56.65;99788.19;5013090;28;20021;-74
2021/10/14 10:50:17;;;;;;;5.33;2.80;;;;;;;13.99;56.96;99776.47;5029614;28;20120;-74
2021/10/14 10:52:45;;;;;;;6.93;3.03;;;;;;;13.97;57.25;99791.31;5028058;28;20041;-71
2021/10/14 10:55:22;;;;;;;4.25;2.70;;;;;;;13.99;56.86;99783.75;5029897;28;20024;-75
2021/10/14 10:57:50;;;;;;;8.93;3.60;;;;;;;13.69;57.14;99777.75;5025991;28;20037;-70
2021/10/14 11:00:17;;;;;;;6.25;3.13;;;;;;;14.00;57.80;99785.44;5026123;28;20041;-70
2021/10/14 11:02:43;;;;;;;7.53;2.58;;;;;;;14.29;56.84;99778.03;5028206;28;20025;-73
2021/10/14 11:05:09;;;;;;;7.22;3.13;;;;;;;14.44;55.84;99771.41;5028787;28;20035;-73
2021/10/14 11:07:35;;;;;;;5.55;3.08;;;;;;;14.66;55.69;99758.47;5028481;28;20104;-73
2021/10/14 11:10:00;;;;;;;6.10;3.03;;;;;;;15.28;53.93;99775.53;5029634;28;20048;-71
2021/10/14 11:12:25;;;;;;;4.93;2.58;;;;;;;15.33;52.91;99748.47;5021577;28;20104;-71
2021/10/14 11:14:51;;;;;;;5.90;2.50;;;;;;;15.70;53.08;99759.78;5019272;28;20110;-70
2021/10/14 11:17:16;;;;;;;9.38;3.10;;;;;;;16.40;51.47;99753.63;5028628;28;20507;-71
2021/10/14 11:19:43;;;;;;;8.00;2.72;;;;;;;16.44;50.46;99755.72;5028969;28;20158;-69
2021/10/14 11:22:17;;;;;;;5.88;2.40;;;;;;;16.34;50.81;99757.22;5029117;28;20026;-70
2021/10/14 11:24:43;;;;;;;6.28;2.63;;;;;;;16.32;51.23;99748.41;5028641;28;20593;-70
2021/10/14 11:27:19;;;;;;;6.53;2.42;;;;;;;16.31;52.24;99752.22;5028327;28;20025;-69
2021/10/14 11:29:47;;;;;;;4.35;2.42;;;;;;;15.92;52.43;99743.13;5020322;28;20710;-69